sensor_id;sensor_type;location;lat;lon;timestamp;pressure;altitude;pressure_sealevel;temperature;humidity
15272;BME280;7737;51.578;7.268;2023-11-25T00:00:50;100572.25;;;2.95;100.00
15272;BME280;7737;51.578;7.268;2023-11-25T00:03:17;100571.59;;;2.86;100.00
15272;BME280;7737;51.578;7.268;2023-11-25T00:05:43;100567.81;;;2.99;100.00
15272;BME280;7737;51.578;7.268;2023-11-25T00:08:10;100586.28;;;2.94;100.00
15272;BME280;7737;51.578;7.268;2023-11-25T00:10:36;100598.47;;;2.98;100.00
15272;BME280;7737;51.578;7.268;2023-11-25T00:13:03;100585.28;;;3.00;100.00
15272;BME280;7737;51.578;7.268;2023-11-25T00:15:31;100589.66;;;3.01;100.00
15272;BME280;7737;51.578;7.268;2023-11-25T00:17:59;100598.34;;;3.03;100.00
15272;BME280;7737;51.578;7.268;2023-11-25T00:20:25;100596.78;;;2.94;100.00
15272;BME280;7737;51.578;7.268;2023-11-25T00:22:52;100598.41;;;3.01;100.00
15272;BME280;7737;51.578;7.268;2023-11-25T00:25:18;100608.81;;;3.04;100.00
15272;BME280;7737;51.578;7.268;2023-11-25T00:27:45;100607.09;;;3.03;100.00
15272;BME280;7737;51.578;7.268;2023-11-25T00:30:12;100617.47;;;3.10;100.00
15272;BME280;7737;51.578;7.268;2023-11-25T00:32:40;100614.75;;;3.14;100.00
15272;BME280;7737;51.578;7.268;2023-11-25T00:35:08;100614.06;;;3.04;100.00
15272;BME280;7737;51.578;7.268;2023-11-25T00:37:36;100597.41;;;3.07;100.00
15272;BME280;7737;51.578;7.268;2023-11-25T00:40:05;100604.38;;;3.08;100.00
15272;BME280;7737;51.578;7.268;2023-11-25T00:42:34;100606.47;;;3.32;100.00
15272;BME280;7737;51.578;7.268;2023-11-25T00:45:01;100610.97;;;3.26;100.00
15272;BME280;7737;51.578;7.268;2023-11-25T00:47:29;100617.16;;;3.25;100.00
15272;BME280;7737;51.578;7.268;2023-11-25T00:49:56;100614.47;;;3.26;100.00
15272;BME280;7737;51.578;7.268;2023-11-25T00:52:24;100617.91;;;3.30;100.00
15272;BME280;7737;51.578;7.268;2023-11-25T00:54:50;100624.06;;;3.29;100.00
15272;BME280;7737;51.578;7.268;2023-11-25T00:57:17;100614.53;;;3.23;100.00
15272;BME280;7737;51.578;7.268;2023-11-25T00:59:43;100623.16;;;3.30;100.00
15272;BME280;7737;51.578;7.268;2023-11-25T01:02:10;100637.94;;;3.34;100.00
15272;BME280;7737;51.578;7.268;2023-11-25T01:04:39;100648.16;;;3.49;100.00
15272;BME280;7737;51.578;7.268;2023-11-25T01:07:05;100642.16;;;3.42;100.00
15272;BME280;7737;51.578;7.268;2023-11-25T01:09:33;100646.53;;;3.42;100.00
15272;BME280;7737;51.578;7.268;2023-11-25T01:12:00;100643.09;;;3.40;100.00
15272;BME280;7737;51.578;7.268;2023-11-25T01:14:27;100635.66;;;3.60;100.00
15272;BME280;7737;51.578;7.268;2023-11-25T01:16:54;100642.72;;;3.56;100.00
15272;BME280;7737;51.578;7.268;2023-11-25T01:19:20;100649.59;;;3.62;100.00
15272;BME280;7737;51.578;7.268;2023-11-25T01:21:48;100644.13;;;3.71;100.00
15272;BME280;7737;51.578;7.268;2023-11-25T01:24:14;100647.81;;;3.64;100.00
15272;BME280;7737;51.578;7.268;2023-11-25T01:26:42;100648.44;;;3.75;100.00
15272;BME280;7737;51.578;7.268;2023-11-25T01:29:09;100638.69;;;3.79;100.00
15272;BME280;7737;51.578;7.268;2023-11-25T01:31:35;100649.31;;;3.74;100.00
15272;BME280;7737;51.578;7.268;2023-11-25T01:34:02;100652.00;;;3.73;100.00
15272;BME280;7737;51.578;7.268;2023-11-25T01:36:28;100651.06;;;3.75;100.00
15272;BME280;7737;51.578;7.268;2023-11-25T01:38:55;100641.75;;;3.60;100.00
15272;BME280;7737;51.578;7.268;2023-11-25T01:41:21;100644.28;;;3.65;100.00
15272;BME280;7737;51.578;7.268;2023-11-25T01:43:49;100639.97;;;3.62;100.00
15272;BME280;7737;51.578;7.268;2023-11-25T01:46:34;100650.59;;;3.56;100.00
15272;BME280;7737;51.578;7.268;2023-11-25T01:49:03;100648.16;;;3.49;100.00
15272;BME280;7737;51.578;7.268;2023-11-25T01:51:30;100644.88;;;3.38;100.00
15272;BME280;7737;51.578;7.268;2023-11-25T01:53:58;100651.78;;;3.42;100.00
15272;BME280;7737;51.578;7.268;2023-11-25T01:56:26;100654.78;;;3.25;100.00
15272;BME280;7737;51.578;7.268;2023-11-25T01:58:55;100664.25;;;3.32;100.00
15272;BME280;7737;51.578;7.268;2023-11-25T02:01:24;100664.53;;;3.19;100.00
15272;BME280;7737;51.578;7.268;2023-11-25T02:03:51;100667.94;;;3.25;100.00
15272;BME280;7737;51.578;7.268;2023-11-25T02:06:17;100665.47;;;3.16;100.00
15272;BME280;7737;51.578;7.268;2023-11-25T02:08:45;100666.28;;;3.20;100.00
15272;BME280;7737;51.578;7.268;2023-11-25T02:11:11;100663.06;;;3.05;100.00
15272;BME280;7737;51.578;7.268;2023-11-25T02:13:38;100656.88;;;3.08;100.00
15272;BME280;7737;51.578;7.268;2023-11-25T02:16:06;100661.22;;;3.11;100.00
15272;BME280;7737;51.578;7.268;2023-11-25T02:18:36;100667.38;;;3.10;100.00
15272;BME280;7737;51.578;7.268;2023-11-25T02:21:02;100662.25;;;3.03;100.00
15272;BME280;7737;51.578;7.268;2023-11-25T02:23:31;100658.63;;;3.09;100.00
15272;BME280;7737;51.578;7.268;2023-11-25T02:25:58;100657.75;;;3.08;100.00
15272;BME280;7737;51.578;7.268;2023-11-25T02:28:24;100661.63;;;2.89;100.00
15272;BME280;7737;51.578;7.268;2023-11-25T02:30:51;100669.50;;;2.91;100.00
15272;BME280;7737;51.578;7.268;2023-11-25T02:33:18;100671.09;;;2.98;100.00
15272;BME280;7737;51.578;7.268;2023-11-25T02:35:45;100660.50;;;3.02;100.00
15272;BME280;7737;51.578;7.268;2023-11-25T02:38:13;100663.47;;;2.84;100.00
15272;BME280;7737;51.578;7.268;2023-11-25T02:40:42;100653.88;;;2.83;100.00
15272;BME280;7737;51.578;7.268;2023-11-25T02:43:09;100658.28;;;2.81;100.00
15272;BME280;7737;51.578;7.268;2023-11-25T02:45:37;100653.03;;;2.81;100.00
15272;BME280;7737;51.578;7.268;2023-11-25T02:48:05;100648.72;;;2.79;100.00
15272;BME280;7737;51.578;7.268;2023-11-25T02:50:32;100661.09;;;2.71;100.00
15272;BME280;7737;51.578;7.268;2023-11-25T02:52:59;100671.56;;;2.74;100.00
15272;BME280;7737;51.578;7.268;2023-11-25T02:55:25;100669.03;;;2.69;100.00
15272;BME280;7737;51.578;7.268;2023-11-25T02:57:53;100669.66;;;2.82;100.00
15272;BME280;7737;51.578;7.268;2023-11-25T03:00:20;100670.75;;;2.70;100.00
15272;BME280;7737;51.578;7.268;2023-11-25T03:02:56;100661.69;;;2.86;100.00
15272;BME280;7737;51.578;7.268;2023-11-25T03:05:33;100656.84;;;2.65;100.00
15272;BME280;7737;51.578;7.268;2023-11-25T03:07:59;100663.84;;;2.66;100.00
15272;BME280;7737;51.578;7.268;2023-11-25T03:10:26;100660.38;;;2.64;100.00
15272;BME280;7737;51.578;7.268;2023-11-25T03:12:53;100653.28;;;2.69;100.00
15272;BME280;7737;51.578;7.268;2023-11-25T03:15:20;100654.94;;;2.73;100.00
15272;BME280;7737;51.578;7.268;2023-11-25T03:17:46;100654.22;;;2.65;100.00
15272;BME280;7737;51.578;7.268;2023-11-25T03:20:13;100653.38;;;2.65;100.00
15272;BME280;7737;51.578;7.268;2023-11-25T03:22:39;100654.88;;;2.76;100.00
15272;BME280;7737;51.578;7.268;2023-11-25T03:25:07;100641.03;;;2.68;100.00
15272;BME280;7737;51.578;7.268;2023-11-25T03:27:32;100647.34;;;2.58;100.00
15272;BME280;7737;51.578;7.268;2023-11-25T03:30:01;100650.56;;;2.74;100.00
15272;BME280;7737;51.578;7.268;2023-11-25T03:32:28;100654.22;;;2.65;100.00
15272;BME280;7737;51.578;7.268;2023-11-25T03:34:54;100658.44;;;2.75;100.00
15272;BME280;7737;51.578;7.268;2023-11-25T03:37:21;100664.50;;;2.76;100.00
15272;BME280;7737;51.578;7.268;2023-11-25T03:39:47;100667.06;;;2.80;100.00
15272;BME280;7737;51.578;7.268;2023-11-25T03:42:16;100661.75;;;2.83;100.00
15272;BME280;7737;51.578;7.268;2023-11-25T03:44:45;100656.38;;;2.91;100.00
15272;BME280;7737;51.578;7.268;2023-11-25T03:47:13;100655.50;;;2.89;100.00
15272;BME280;7737;51.578;7.268;2023-11-25T03:49:39;100655.25;;;3.02;100.00
15272;BME280;7737;51.578;7.268;2023-11-25T03:52:06;100645.44;;;3.12;100.00
15272;BME280;7737;51.578;7.268;2023-11-25T03:54:33;100638.34;;;3.16;100.00
15272;BME280;7737;51.578;7.268;2023-11-25T03:56:59;100643.59;;;3.16;100.00
15272;BME280;7737;51.578;7.268;2023-11-25T03:59:26;100644.66;;;3.07;100.00
15272;BME280;7737;51.578;7.268;2023-11-25T04:01:52;100632.44;;;3.06;100.00
15272;BME280;7737;51.578;7.268;2023-11-25T04:04:20;100629.81;;;3.04;100.00
15272;BME280;7737;51.578;7.268;2023-11-25T04:06:47;100641.88;;;3.15;100.00
15272;BME280;7737;51.578;7.268;2023-11-25T04:09:13;100628.91;;;3.07;100.00
15272;BME280;7737;51.578;7.268;2023-11-25T04:11:40;100622.72;;;3.10;100.00
15272;BME280;7737;51.578;7.268;2023-11-25T04:14:07;100623.72;;;3.02;100.00
15272;BME280;7737;51.578;7.268;2023-11-25T04:16:33;100626.13;;;3.15;100.00
15272;BME280;7737;51.578;7.268;2023-11-25T04:19:00;100626.41;;;2.99;100.00
15272;BME280;7737;51.578;7.268;2023-11-25T04:21:28;100628.09;;;3.03;100.00
15272;BME280;7737;51.578;7.268;2023-11-25T04:23:54;100629.09;;;2.98;100.00
15272;BME280;7737;51.578;7.268;2023-11-25T04:26:21;100624.72;;;2.98;100.00
15272;BME280;7737;51.578;7.268;2023-11-25T04:28:48;100626.47;;;2.98;100.00
15272;BME280;7737;51.578;7.268;2023-11-25T04:31:14;100631.78;;;2.95;100.00
15272;BME280;7737;51.578;7.268;2023-11-25T04:33:41;100629.31;;;2.87;100.00
15272;BME280;7737;51.578;7.268;2023-11-25T04:36:08;100622.16;;;2.94;100.00
15272;BME280;7737;51.578;7.268;2023-11-25T04:38:37;100619.47;;;2.98;100.00
15272;BME280;7737;51.578;7.268;2023-11-25T04:41:03;100624.88;;;2.89;100.00
15272;BME280;7737;51.578;7.268;2023-11-25T04:43:30;100635.28;;;2.95;100.00
15272;BME280;7737;51.578;7.268;2023-11-25T04:45:56;100639.75;;;2.89;100.00
15272;BME280;7737;51.578;7.268;2023-11-25T04:48:24;100638.78;;;2.94;100.00
15272;BME280;7737;51.578;7.268;2023-11-25T04:50:51;100626.72;;;2.84;100.00
15272;BME280;7737;51.578;7.268;2023-11-25T04:53:17;100631.88;;;2.90;100.00
15272;BME280;7737;51.578;7.268;2023-11-25T04:55:45;100637.84;;;2.97;100.00
15272;BME280;7737;51.578;7.268;2023-11-25T04:58:12;100636.91;;;2.99;100.00
15272;BME280;7737;51.578;7.268;2023-11-25T05:00:39;100637.84;;;2.97;100.00
15272;BME280;7737;51.578;7.268;2023-11-25T05:03:05;100628.16;;;3.00;100.00
15272;BME280;7737;51.578;7.268;2023-11-25T05:05:32;100624.72;;;2.97;100.00
15272;BME280;7737;51.578;7.268;2023-11-25T05:07:58;100619.41;;;3.01;100.00
15272;BME280;7737;51.578;7.268;2023-11-25T05:10:25;100615.84;;;3.02;100.00
15272;BME280;7737;51.578;7.268;2023-11-25T05:12:54;100617.47;;;3.10;100.00
15272;BME280;7737;51.578;7.268;2023-11-25T05:15:21;100612.28;;;3.06;100.00
15272;BME280;7737;51.578;7.268;2023-11-25T05:17:50;100619.25;;;3.07;100.00
15272;BME280;7737;51.578;7.268;2023-11-25T05:20:16;100626.97;;;3.15;100.00
15272;BME280;7737;51.578;7.268;2023-11-25T05:22:43;100627.91;;;3.13;100.00
15272;BME280;7737;51.578;7.268;2023-11-25T05:25:10;100615.56;;;3.18;100.00
15272;BME280;7737;51.578;7.268;2023-11-25T05:27:38;100616.47;;;3.15;100.00
15272;BME280;7737;51.578;7.268;2023-11-25T05:30:07;100612.81;;;3.22;100.00
15272;BME280;7737;51.578;7.268;2023-11-25T05:32:34;100627.59;;;3.28;100.00
15272;BME280;7737;51.578;7.268;2023-11-25T05:35:01;100618.03;;;3.25;100.00
15272;BME280;7737;51.578;7.268;2023-11-25T05:37:27;100627.53;;;3.31;100.00
15272;BME280;7737;51.578;7.268;2023-11-25T05:39:54;100615.28;;;3.30;100.00
15272;BME280;7737;51.578;7.268;2023-11-25T05:42:21;100628.25;;;3.37;100.00
15272;BME280;7737;51.578;7.268;2023-11-25T05:44:52;100616.81;;;3.40;100.00
15272;BME280;7737;51.578;7.268;2023-11-25T05:47:20;100623.69;;;3.45;100.00
15272;BME280;7737;51.578;7.268;2023-11-25T05:49:47;100625.44;;;3.45;100.00
15272;BME280;7737;51.578;7.268;2023-11-25T05:52:14;100628.06;;;3.45;100.00
15272;BME280;7737;51.578;7.268;2023-11-25T05:54:40;100628.84;;;3.50;100.00
15272;BME280;7737;51.578;7.268;2023-11-25T05:57:08;100630.56;;;3.51;100.00
15272;BME280;7737;51.578;7.268;2023-11-25T05:59:35;100624.28;;;3.58;100.00
15272;BME280;7737;51.578;7.268;2023-11-25T06:02:01;100615.44;;;3.62;100.00
15272;BME280;7737;51.578;7.268;2023-11-25T06:04:29;100604.94;;;3.60;100.00
15272;BME280;7737;51.578;7.268;2023-11-25T06:06:56;100611.91;;;3.63;100.00
15272;BME280;7737;51.578;7.268;2023-11-25T06:09:22;100611.75;;;3.69;100.00
15272;BME280;7737;51.578;7.268;2023-11-25T06:11:49;100606.50;;;3.71;100.00
15272;BME280;7737;51.578;7.268;2023-11-25T06:14:16;100603.81;;;3.72;100.00
15272;BME280;7737;51.578;7.268;2023-11-25T06:16:44;100602.88;;;3.75;100.00
15272;BME280;7737;51.578;7.268;2023-11-25T06:19:11;100608.06;;;3.78;100.00
15272;BME280;7737;51.578;7.268;2023-11-25T06:21:43;100610.56;;;3.82;100.00
15272;BME280;7737;51.578;7.268;2023-11-25T06:24:09;100609.63;;;3.86;100.00
15272;BME280;7737;51.578;7.268;2023-11-25T06:26:36;100609.63;;;3.85;100.00
15272;BME280;7737;51.578;7.268;2023-11-25T06:29:02;100594.66;;;3.88;100.00
15272;BME280;7737;51.578;7.268;2023-11-25T06:31:29;100583.22;;;3.89;100.00
15272;BME280;7737;51.578;7.268;2023-11-25T06:33:56;100596.28;;;3.92;100.00
15272;BME280;7737;51.578;7.268;2023-11-25T06:36:25;100577.81;;;3.95;100.00
15272;BME280;7737;51.578;7.268;2023-11-25T06:38:53;100578.56;;;4.00;100.00
15272;BME280;7737;51.578;7.268;2023-11-25T06:41:20;100578.50;;;4.03;100.00
15272;BME280;7737;51.578;7.268;2023-11-25T06:43:50;100570.59;;;4.03;100.00
15272;BME280;7737;51.578;7.268;2023-11-25T06:46:16;100575.66;;;4.11;100.00
15272;BME280;7737;51.578;7.268;2023-11-25T06:48:43;100570.38;;;4.12;100.00
15272;BME280;7737;51.578;7.268;2023-11-25T06:51:09;100567.75;;;4.12;100.00
15272;BME280;7737;51.578;7.268;2023-11-25T06:53:37;100566.91;;;4.10;100.00
15272;BME280;7737;51.578;7.268;2023-11-25T06:56:08;100568.72;;;4.08;100.00
15272;BME280;7737;51.578;7.268;2023-11-25T06:58:35;100577.53;;;4.07;100.00
15272;BME280;7737;51.578;7.268;2023-11-25T07:01:01;100562.63;;;4.06;100.00
15272;BME280;7737;51.578;7.268;2023-11-25T07:03:29;100573.09;;;4.08;100.00
15272;BME280;7737;51.578;7.268;2023-11-25T07:05:56;100578.41;;;4.06;100.00
15272;BME280;7737;51.578;7.268;2023-11-25T07:08:23;100574.78;;;4.10;100.00
15272;BME280;7737;51.578;7.268;2023-11-25T07:10:50;100585.72;;;3.95;100.00
15272;BME280;7737;51.578;7.268;2023-11-25T07:13:21;100590.16;;;3.93;100.00
15272;BME280;7737;51.578;7.268;2023-11-25T07:15:48;100582.34;;;3.90;100.00
15272;BME280;7737;51.578;7.268;2023-11-25T07:18:15;100578.88;;;3.88;100.00
15272;BME280;7737;51.578;7.268;2023-11-25T07:20:44;100572.63;;;3.92;100.00
15272;BME280;7737;51.578;7.268;2023-11-25T07:23:11;100568.28;;;3.91;100.00
15272;BME280;7737;51.578;7.268;2023-11-25T07:25:38;100561.00;;;4.02;100.00
15272;BME280;7737;51.578;7.268;2023-11-25T07:28:07;100559.19;;;4.04;100.00
15272;BME280;7737;51.578;7.268;2023-11-25T07:30:36;100555.63;;;4.05;100.00
15272;BME280;7737;51.578;7.268;2023-11-25T07:33:03;100555.69;;;4.04;100.00
15272;BME280;7737;51.578;7.268;2023-11-25T07:35:30;100567.09;;;4.04;100.00
15272;BME280;7737;51.578;7.268;2023-11-25T07:37:56;100558.13;;;4.11;100.00
15272;BME280;7737;51.578;7.268;2023-11-25T07:40:23;100560.88;;;4.07;100.00
15272;BME280;7737;51.578;7.268;2023-11-25T07:42:50;100561.63;;;4.10;100.00
15272;BME280;7737;51.578;7.268;2023-11-25T07:45:17;100553.59;;;4.16;100.00
15272;BME280;7737;51.578;7.268;2023-11-25T07:47:45;100560.59;;;4.17;100.00
15272;BME280;7737;51.578;7.268;2023-11-25T07:50:12;100565.88;;;4.17;100.00
15272;BME280;7737;51.578;7.268;2023-11-25T07:52:39;100560.34;;;4.26;100.00
15272;BME280;7737;51.578;7.268;2023-11-25T07:55:07;100559.50;;;4.26;100.00
15272;BME280;7737;51.578;7.268;2023-11-25T07:57:34;100567.34;;;4.27;100.00
15272;BME280;7737;51.578;7.268;2023-11-25T08:00:00;100567.28;;;4.30;100.00
15272;BME280;7737;51.578;7.268;2023-11-25T08:02:27;100574.09;;;4.38;100.00
15272;BME280;7737;51.578;7.268;2023-11-25T08:04:55;100581.16;;;4.36;100.00
15272;BME280;7737;51.578;7.268;2023-11-25T08:07:21;100583.63;;;4.42;100.00
15272;BME280;7737;51.578;7.268;2023-11-25T08:09:49;100580.28;;;4.37;100.00
15272;BME280;7737;51.578;7.268;2023-11-25T08:12:15;100575.75;;;4.42;100.00
15272;BME280;7737;51.578;7.268;2023-11-25T08:14:42;100584.47;;;4.44;100.00
15272;BME280;7737;51.578;7.268;2023-11-25T08:17:08;100578.38;;;4.42;100.00
15272;BME280;7737;51.578;7.268;2023-11-25T08:19:35;100568.75;;;4.41;100.00
15272;BME280;7737;51.578;7.268;2023-11-25T08:22:04;100582.72;;;4.43;100.00
15272;BME280;7737;51.578;7.268;2023-11-25T08:24:30;100583.44;;;4.48;100.00
15272;BME280;7737;51.578;7.268;2023-11-25T08:26:56;100579.78;;;4.53;100.00
15272;BME280;7737;51.578;7.268;2023-11-25T08:29:23;100583.34;;;4.52;100.00
15272;BME280;7737;51.578;7.268;2023-11-25T08:31:49;100575.41;;;4.54;100.00
15272;BME280;7737;51.578;7.268;2023-11-25T08:34:16;100578.94;;;4.53;100.00
15272;BME280;7737;51.578;7.268;2023-11-25T08:36:43;100584.97;;;4.58;100.00
15272;BME280;7737;51.578;7.268;2023-11-25T08:39:19;100581.47;;;4.57;100.00
15272;BME280;7737;51.578;7.268;2023-11-25T08:41:51;100582.47;;;4.52;100.00
15272;BME280;7737;51.578;7.268;2023-11-25T08:44:18;100588.44;;;4.58;100.00
15272;BME280;7737;51.578;7.268;2023-11-25T08:46:45;100582.31;;;4.58;100.00
15272;BME280;7737;51.578;7.268;2023-11-25T08:49:12;100576.94;;;4.62;100.00
15272;BME280;7737;51.578;7.268;2023-11-25T08:51:40;100577.72;;;4.66;100.00
15272;BME280;7737;51.578;7.268;2023-11-25T08:54:11;100576.72;;;4.70;100.00
15272;BME280;7737;51.578;7.268;2023-11-25T08:56:41;100579.19;;;4.74;100.00
15272;BME280;7737;51.578;7.268;2023-11-25T08:59:09;100570.28;;;4.80;100.00
15272;BME280;7737;51.578;7.268;2023-11-25T09:01:39;100572.75;;;4.86;100.00
15272;BME280;7737;51.578;7.268;2023-11-25T09:04:08;100571.78;;;4.88;100.00
15272;BME280;7737;51.578;7.268;2023-11-25T09:06:37;100562.16;;;4.87;100.00
15272;BME280;7737;51.578;7.268;2023-11-25T09:09:05;100563.06;;;4.86;100.00
15272;BME280;7737;51.578;7.268;2023-11-25T09:11:32;100560.38;;;4.88;100.00
15272;BME280;7737;51.578;7.268;2023-11-25T09:14:00;100553.28;;;4.90;100.00
15272;BME280;7737;51.578;7.268;2023-11-25T09:16:27;100546.75;;;5.03;100.00
15272;BME280;7737;51.578;7.268;2023-11-25T09:18:54;100547.69;;;5.02;100.00
15272;BME280;7737;51.578;7.268;2023-11-25T09:21:20;100552.94;;;5.02;100.00
15272;BME280;7737;51.578;7.268;2023-11-25T09:23:47;100544.91;;;5.07;100.00
15272;BME280;7737;51.578;7.268;2023-11-25T09:26:13;100537.81;;;5.09;100.00
15272;BME280;7737;51.578;7.268;2023-11-25T09:28:40;100537.72;;;5.12;100.00
15272;BME280;7737;51.578;7.268;2023-11-25T09:31:08;100542.03;;;5.14;100.00
15272;BME280;7737;51.578;7.268;2023-11-25T09:33:35;100539.38;;;5.16;100.00
15272;BME280;7737;51.578;7.268;2023-11-25T09:36:02;100526.03;;;5.20;100.00
15272;BME280;7737;51.578;7.268;2023-11-25T09:38:28;100538.63;;;5.40;100.00
15272;BME280;7737;51.578;7.268;2023-11-25T09:40:55;100533.03;;;5.49;100.00
15272;BME280;7737;51.578;7.268;2023-11-25T09:43:21;100547.53;;;5.64;100.00
15272;BME280;7737;51.578;7.268;2023-11-25T09:45:50;100548.28;;;5.67;100.00
15272;BME280;7737;51.578;7.268;2023-11-25T09:48:19;100548.09;;;5.73;100.00
15272;BME280;7737;51.578;7.268;2023-11-25T09:50:47;100533.88;;;5.77;100.00
15272;BME280;7737;51.578;7.268;2023-11-25T09:53:19;100542.63;;;5.79;100.00
15272;BME280;7737;51.578;7.268;2023-11-25T09:55:59;100543.56;;;5.77;100.00
15272;BME280;7737;51.578;7.268;2023-11-25T09:58:26;100561.19;;;5.75;100.00
15272;BME280;7737;51.578;7.268;2023-11-25T10:00:55;100558.72;;;5.70;100.00
15272;BME280;7737;51.578;7.268;2023-11-25T10:03:25;100567.50;;;5.71;100.00
15272;BME280;7737;51.578;7.268;2023-11-25T10:05:54;100554.72;;;5.59;100.00
15272;BME280;7737;51.578;7.268;2023-11-25T10:08:21;100562.41;;;5.65;100.00
15272;BME280;7737;51.578;7.268;2023-11-25T10:11:01;100549.16;;;5.40;100.00
15272;BME280;7737;51.578;7.268;2023-11-25T10:13:32;100536.03;;;5.38;100.00
15272;BME280;7737;51.578;7.268;2023-11-25T10:15:59;100542.16;;;5.39;100.00
15272;BME280;7737;51.578;7.268;2023-11-25T10:18:29;100543.75;;;5.44;100.00
15272;BME280;7737;51.578;7.268;2023-11-25T10:20:56;100541.91;;;5.46;100.00
15272;BME280;7737;51.578;7.268;2023-11-25T10:23:24;100531.34;;;5.48;100.00
15272;BME280;7737;51.578;7.268;2023-11-25T10:25:52;100537.09;;;5.59;100.00
15272;BME280;7737;51.578;7.268;2023-11-25T10:28:19;100526.22;;;5.70;100.00
15272;BME280;7737;51.578;7.268;2023-11-25T10:30:53;100519.13;;;5.72;100.00
15272;BME280;7737;51.578;7.268;2023-11-25T10:33:21;100522.41;;;5.78;100.00
15272;BME280;7737;51.578;7.268;2023-11-25T10:35:49;100520.66;;;5.79;100.00
15272;BME280;7737;51.578;7.268;2023-11-25T10:38:16;100526.47;;;5.90;100.00
15272;BME280;7737;51.578;7.268;2023-11-25T10:40:45;100523.13;;;5.85;100.00
15272;BME280;7737;51.578;7.268;2023-11-25T10:43:12;100516.78;;;5.90;100.00
15272;BME280;7737;51.578;7.268;2023-11-25T10:45:38;100509.59;;;5.94;100.00
15272;BME280;7737;51.578;7.268;2023-11-25T10:48:05;100501.50;;;6.00;100.00
15272;BME280;7737;51.578;7.268;2023-11-25T10:50:34;100504.66;;;6.09;100.00
15272;BME280;7737;51.578;7.268;2023-11-25T10:53:04;100508.56;;;6.24;100.00
15272;BME280;7737;51.578;7.268;2023-11-25T10:55:31;100506.50;;;6.32;100.00
15272;BME280;7737;51.578;7.268;2023-11-25T10:57:58;100508.06;;;6.38;100.00
15272;BME280;7737;51.578;7.268;2023-11-25T11:00:28;100496.66;;;6.37;100.00
15272;BME280;7737;51.578;7.268;2023-11-25T11:02:56;100501.97;;;6.36;100.00
15272;BME280;7737;51.578;7.268;2023-11-25T11:05:29;100491.16;;;6.43;100.00
15272;BME280;7737;51.578;7.268;2023-11-25T11:08:00;100484.94;;;6.44;100.00
15272;BME280;7737;51.578;7.268;2023-11-25T11:10:31;100479.66;;;6.44;100.00
15272;BME280;7737;51.578;7.268;2023-11-25T11:13:03;100481.16;;;6.51;100.00
15272;BME280;7737;51.578;7.268;2023-11-25T11:15:30;100475.31;;;6.43;100.00
15272;BME280;7737;51.578;7.268;2023-11-25T11:18:01;100484.84;;;6.47;100.00
15272;BME280;7737;51.578;7.268;2023-11-25T11:20:36;100497.97;;;6.49;100.00
15272;BME280;7737;51.578;7.268;2023-11-25T11:23:04;100484.94;;;6.44;100.00
15272;BME280;7737;51.578;7.268;2023-11-25T11:25:35;100482.84;;;6.54;100.00
15272;BME280;7737;51.578;7.268;2023-11-25T11:28:10;100483.94;;;6.48;100.00
15272;BME280;7737;51.578;7.268;2023-11-25T11:30:43;100475.03;;;6.51;100.00
15272;BME280;7737;51.578;7.268;2023-11-25T11:33:11;100477.81;;;6.46;100.00
15272;BME280;7737;51.578;7.268;2023-11-25T11:35:40;100479.38;;;6.52;100.00
15272;BME280;7737;51.578;7.268;2023-11-25T11:38:25;100480.00;;;6.35;100.00
15272;BME280;7737;51.578;7.268;2023-11-25T11:40:56;100480.81;;;6.37;100.00
15272;BME280;7737;51.578;7.268;2023-11-25T11:43:24;100477.09;;;6.43;100.00
15272;BME280;7737;51.578;7.268;2023-11-25T11:45:53;100477.09;;;6.43;100.00
15272;BME280;7737;51.578;7.268;2023-11-25T11:48:19;100479.84;;;6.40;100.00
15272;BME280;7737;51.578;7.268;2023-11-25T11:50:48;100474.38;;;6.44;100.00
15272;BME280;7737;51.578;7.268;2023-11-25T11:53:16;100478.06;;;6.40;100.00
15272;BME280;7737;51.578;7.268;2023-11-25T11:55:48;100473.41;;;6.47;100.00
15272;BME280;7737;51.578;7.268;2023-11-25T11:58:18;100469.00;;;6.47;100.00
15272;BME280;7737;51.578;7.268;2023-11-25T12:00:46;100469.56;;;6.55;100.00
15272;BME280;7737;51.578;7.268;2023-11-25T12:03:13;100461.53;;;6.58;100.00
15272;BME280;7737;51.578;7.268;2023-11-25T12:05:40;100461.72;;;6.54;100.00
15272;BME280;7737;51.578;7.268;2023-11-25T12:08:07;100458.13;;;6.55;100.00
15272;BME280;7737;51.578;7.268;2023-11-25T12:10:33;100459.91;;;6.54;100.00
15272;BME280;7737;51.578;7.268;2023-11-25T12:13:00;100453.03;;;6.50;100.00
15272;BME280;7737;51.578;7.268;2023-11-25T12:15:28;100460.88;;;6.52;100.00
15272;BME280;7737;51.578;7.268;2023-11-25T12:17:57;100461.47;;;6.60;100.00
15272;BME280;7737;51.578;7.268;2023-11-25T12:20:25;100458.59;;;6.66;100.00
15272;BME280;7737;51.578;7.268;2023-11-25T12:22:53;100458.91;;;6.58;100.00
15272;BME280;7737;51.578;7.268;2023-11-25T12:25:20;100461.19;;;6.67;100.00
15272;BME280;7737;51.578;7.268;2023-11-25T12:27:51;100449.78;;;6.67;100.00
15272;BME280;7737;51.578;7.268;2023-11-25T12:30:20;100447.28;;;6.62;100.00
15272;BME280;7737;51.578;7.268;2023-11-25T12:32:47;100452.56;;;6.62;100.00
15272;BME280;7737;51.578;7.268;2023-11-25T12:35:14;100455.09;;;6.65;100.00
15272;BME280;7737;51.578;7.268;2023-11-25T12:37:41;100453.44;;;6.63;100.00
15272;BME280;7737;51.578;7.268;2023-11-25T12:40:19;100445.31;;;6.67;100.00
15272;BME280;7737;51.578;7.268;2023-11-25T12:42:47;100453.41;;;6.64;100.00
15272;BME280;7737;51.578;7.268;2023-11-25T12:45:31;100455.22;;;6.62;100.00
15272;BME280;7737;51.578;7.268;2023-11-25T12:47:59;100455.00;;;6.68;100.00
15272;BME280;7737;51.578;7.268;2023-11-25T12:50:27;100450.50;;;6.70;100.00
15272;BME280;7737;51.578;7.268;2023-11-25T12:53:05;100453.44;;;6.63;100.00
15272;BME280;7737;51.578;7.268;2023-11-25T12:55:36;100446.31;;;6.65;100.00
15272;BME280;7737;51.578;7.268;2023-11-25T12:58:11;100444.66;;;6.62;100.00
15272;BME280;7737;51.578;7.268;2023-11-25T13:00:45;100432.53;;;6.57;100.00
15272;BME280;7737;51.578;7.268;2023-11-25T13:03:22;100435.84;;;6.62;100.00